Time;durP1;ratioP1;P1;durP2;ratioP2;P2;SDS_P1;SDS_P2;PMS_P1;PMS_P2;Temp;Humidity;BMP_temperature;BMP_pressure;BME280_temperature;BME280_humidity;BME280_pressure;Samples;Min_cycle;Max_cycle;Signal;HPM_P1;HPM_P2
2022/09/26 00:01:41;;;;;;;10.43;7.28;;;11.60;99.90;;;14.59;60.93;97157.25;5028528;28;20282;-51
2022/09/26 00:04:23;;;;;;;12.05;6.43;;;11.60;99.90;;;14.53;61.22;97166.88;5028291;28;20235;-52
2022/09/26 00:06:57;;;;;;;7.90;6.32;;;11.50;99.90;;;14.47;61.27;97156.16;5027246;28;20060;-48
2022/09/26 00:09:27;;;;;;;13.80;7.30;;;11.40;99.90;;;14.37;61.36;97165.34;5028782;28;20813;-46
2022/09/26 00:11:55;;;;;;;9.80;7.10;;;11.30;99.90;;;14.32;61.57;97164.28;5028453;28;20093;-46
2022/09/26 00:14:26;;;;;;;12.35;7.47;;;11.30;99.90;;;14.31;61.46;97160.78;5027864;28;20247;-47
2022/09/26 00:16:54;;;;;;;12.40;7.15;;;11.30;99.90;;;14.37;61.25;97160.00;5029282;28;20057;-49
2022/09/26 00:19:23;;;;;;;8.77;6.80;;;11.30;99.90;;;14.41;61.04;97156.94;5026313;28;20061;-49
2022/09/26 00:21:51;;;;;;;12.63;6.53;;;11.40;99.90;;;14.41;60.94;97155.09;5028857;28;20056;-50
2022/09/26 00:24:19;;;;;;;10.00;6.75;;;11.30;99.90;;;14.42;60.99;97151.38;5028683;28;20053;-46
2022/09/26 00:26:47;;;;;;;11.75;6.93;;;11.40;99.90;;;14.38;60.81;97136.72;5028537;28;20073;-49
2022/09/26 00:29:15;;;;;;;7.70;6.40;;;11.40;99.90;;;14.32;60.76;97151.72;5027671;28;20049;-46
2022/09/26 00:31:46;;;;;;;9.57;7.20;;;11.20;99.90;;;14.14;61.31;97152.25;5027379;28;20045;-47
2022/09/26 00:34:17;;;;;;;11.05;6.47;;;11.10;99.90;;;14.11;61.25;97160.69;5042336;28;20179;-46
2022/09/26 00:36:45;;;;;;;10.23;7.70;;;11.10;99.90;;;14.05;61.36;97152.59;5028123;28;20051;-47
2022/09/26 00:39:14;;;;;;;9.80;6.50;;;11.00;99.90;;;14.06;61.22;97151.56;5028301;28;20057;-49
2022/09/26 00:41:44;;;;;;;11.27;6.87;;;11.00;99.90;;;14.10;61.05;97152.84;5042766;28;20068;-48
2022/09/26 00:44:45;;;;;;;10.15;6.82;;;11.00;99.90;;;14.09;61.00;97146.63;5027941;28;20352;-46
2022/09/26 00:47:25;;;;;;;13.27;6.25;;;11.10;99.90;;;14.11;60.91;97136.59;5028209;28;20049;-45
2022/09/26 00:50:09;;;;;;;12.00;7.25;;;11.10;99.90;;;14.11;60.95;97135.75;5043511;28;20049;-46
2022/09/26 00:52:45;;;;;;;9.52;6.18;;;11.10;99.90;;;14.11;60.55;97141.09;5042781;28;20479;-49
2022/09/26 00:55:19;;;;;;;9.98;6.18;;;11.10;99.90;;;14.08;60.57;97136.97;5026140;28;20051;-47
2022/09/26 00:57:57;;;;;;;9.18;6.72;;;11.00;99.90;;;13.99;60.90;97128.25;5026873;28;20045;-47
2022/09/26 01:00:26;;;;;;;9.43;7.22;;;11.00;99.90;;;13.98;60.92;97117.75;5026664;28;20041;-48
2022/09/26 01:02:54;;;;;;;14.07;8.95;;;10.90;99.90;;;13.90;61.08;97118.75;5024947;28;20061;-52
2022/09/26 01:05:23;;;;;;;10.03;7.67;;;10.90;99.90;;;13.93;60.91;97123.69;5027532;28;20055;-45
2022/09/26 01:07:53;;;;;;;8.37;6.30;;;10.90;99.90;;;13.86;61.04;97122.81;5044066;28;20270;-52
2022/09/26 01:10:21;;;;;;;10.23;6.60;;;10.90;99.90;;;13.90;60.75;97124.09;5026424;28;20051;-49
2022/09/26 01:12:51;;;;;;;9.97;6.47;;;10.90;99.90;;;13.77;61.09;97124.81;5025609;28;20051;-47
2022/09/26 01:15:19;;;;;;;9.33;5.73;;;10.80;99.90;;;13.75;61.18;97118.81;5026154;28;20060;-51
2022/09/26 01:17:49;;;;;;;9.82;5.82;;;10.80;99.90;;;13.79;60.82;97119.25;5041482;28;20080;-47
2022/09/26 01:20:25;;;;;;;7.72;4.88;;;10.80;99.90;;;13.68;60.84;97111.75;5025689;28;20052;-45
2022/09/26 01:23:33;;;;;;;6.80;5.38;;;10.70;99.90;;;13.73;60.77;97114.69;5009079;28;20391;-47
2022/09/26 01:26:29;;;;;;;6.43;5.03;;;10.70;99.90;;;13.73;60.62;97118.19;5027790;28;20054;-47
2022/09/26 01:29:27;;;;;;;8.55;5.57;;;10.70;99.90;;;13.72;60.89;97118.38;5027123;28;20053;-46
2022/09/26 01:34:58;;;;;;;8.23;5.60;;;10.80;99.90;;;13.73;60.56;97122.72;5042821;28;20283;-50
2022/09/26 01:37:47;;;;;;;10.45;5.78;;;10.70;99.90;;;13.77;60.55;97126.66;5043478;28;20378;-48
2022/09/26 01:40:45;;;;;;;8.43;5.80;;;10.70;99.90;;;13.81;60.42;97127.91;5027093;28;20267;-47
2022/09/26 01:43:29;;;;;;;10.57;6.60;;;10.70;99.90;;;13.78;60.69;97128.28;5026687;28;20053;-49
2022/09/26 01:46:56;;;;;;;8.32;6.43;;;10.70;99.90;;;13.86;60.63;97130.00;5025272;28;20059;-46
2022/09/26 01:49:59;;;;;;;11.73;6.40;;;10.80;99.90;;;13.92;60.40;97121.19;5006861;28;20371;-47
2022/09/26 01:52:41;;;;;;;11.25;7.38;;;10.70;99.90;;;13.90;60.29;97124.09;5028164;28;20243;-45
2022/09/26 01:55:34;;;;;;;8.23;6.00;;;10.80;99.90;;;13.90;60.49;97118.75;5027358;28;20791;-48
2022/09/26 01:58:44;;;;;;;10.70;6.93;;;10.80;99.90;;;13.93;60.52;97122.84;5026356;28;20076;-48
2022/09/26 02:01:15;;;;;;;11.00;6.75;;;10.80;99.90;;;13.98;60.53;97109.72;5025910;28;20067;-48
2022/09/26 02:03:58;;;;;;;9.80;7.23;;;10.90;99.90;;;14.01;60.61;97108.50;5007518;28;20065;-48
2022/09/26 02:06:41;;;;;;;11.00;6.45;;;10.90;99.90;;;14.05;60.51;97113.25;5026433;28;20355;-47
2022/09/26 02:09:20;;;;;;;10.33;6.53;;;11.00;99.90;;;14.12;60.30;97114.13;5025448;28;20049;-51
2022/09/26 02:11:52;;;;;;;18.20;7.30;;;11.00;99.90;;;14.11;60.30;97103.63;5008368;28;20262;-48
2022/09/26 02:14:35;;;;;;;11.13;6.90;;;11.00;99.90;;;14.09;60.17;97094.97;5025758;28;20355;-47
2022/09/26 02:17:12;;;;;;;11.60;6.63;;;10.90;99.90;;;14.09;60.01;97103.00;5042480;28;20244;-50
2022/09/26 02:20:04;;;;;;;9.32;7.32;;;10.90;99.90;;;14.05;60.05;97093.69;5042692;28;20053;-47
2022/09/26 02:22:33;;;;;;;10.50;6.65;;;10.80;99.90;;;14.06;60.09;97092.69;5041759;28;20064;-46
2022/09/26 02:25:03;;;;;;;7.10;6.27;;;10.90;99.90;;;14.05;60.05;97091.03;5041786;28;20052;-46
2022/09/26 02:27:31;;;;;;;9.00;5.70;;;10.90;99.90;;;14.06;60.11;97098.88;5025717;28;20363;-48
2022/09/26 02:29:59;;;;;;;7.50;5.78;;;10.90;99.90;;;14.08;60.01;97090.66;5026218;28;20049;-47
2022/09/26 02:32:31;;;;;;;6.25;5.00;;;11.00;99.90;;;14.12;59.96;97086.53;5042404;28;20046;-49
2022/09/26 02:35:00;;;;;;;8.75;5.47;;;11.00;99.90;;;14.13;59.65;97094.38;5040870;28;20053;-46
2022/09/26 02:37:31;;;;;;;7.53;4.27;;;11.00;99.90;;;14.17;59.48;97089.44;5040876;28;20064;-49
2022/09/26 02:39:59;;;;;;;7.55;4.72;;;11.00;99.90;;;14.17;59.41;97079.59;5023770;28;20068;-49
2022/09/26 02:42:50;;;;;;;6.05;5.03;;;11.00;99.90;;;14.16;59.40;97077.09;5023866;28;20067;-46
2022/09/26 02:46:03;;;;;;;5.77;4.70;;;11.10;99.90;;;14.17;59.56;97076.06;5040470;28;20368;-48
2022/09/26 02:49:08;;;;;;;4.57;3.97;;;11.10;99.90;;;14.12;59.36;97075.84;5010282;28;20385;-48
2022/09/26 02:52:06;;;;;;;7.18;3.58;;;11.00;99.90;;;14.16;59.26;97072.56;5018660;28;20061;-46
2022/09/26 02:58:38;;;;;;;7.97;3.90;;;11.00;99.90;;;14.17;59.10;97057.31;5042567;28;20063;-45
2022/09/26 03:01:34;;;;;;;4.60;2.93;;;11.00;99.90;;;14.15;59.08;97054.88;5042188;28;20054;-49
2022/09/26 03:04:31;;;;;;;4.65;2.75;;;11.00;99.90;;;14.15;58.85;97054.88;5027998;28;20049;-46
2022/09/26 03:07:08;;;;;;;9.80;3.08;;;11.00;99.90;;;14.17;58.67;97051.97;5026652;28;20381;-47
2022/09/26 03:09:37;;;;;;;4.47;2.77;;;11.10;99.90;;;14.12;58.46;97044.53;5023994;28;20068;-47
2022/09/26 03:12:06;;;;;;;3.63;2.40;;;11.10;99.90;;;14.16;58.35;97047.66;5041541;28;20084;-49
2022/09/26 03:14:37;;;;;;;3.53;2.40;;;11.10;99.90;;;14.12;58.09;97033.00;5007348;28;20060;-46
2022/09/26 03:17:07;;;;;;;5.40;2.30;;;11.00;99.90;;;14.15;58.12;97033.44;5009462;28;20354;-46
2022/09/26 03:19:47;;;;;;;4.50;2.60;;;11.10;99.90;;;14.20;58.04;97030.16;5008359;28;20237;-46
2022/09/26 03:22:15;;;;;;;7.20;3.43;;;11.10;99.90;;;14.21;57.98;97030.97;5008380;28;20084;-48
2022/09/26 03:24:44;;;;;;;3.92;2.30;;;11.10;99.90;;;14.17;57.72;97034.06;5025928;28;20719;-47
2022/09/26 03:27:15;;;;;;;4.03;2.40;;;11.10;99.90;;;14.17;57.76;97031.41;5012512;28;20059;-48
2022/09/26 03:29:44;;;;;;;4.22;2.50;;;11.10;99.90;;;14.18;57.63;97030.34;5027749;28;20079;-49
2022/09/26 03:32:18;;;;;;;5.57;2.70;;;11.10;99.90;;;14.13;57.38;97029.28;5043962;28;20049;-47
2022/09/26 03:34:49;;;;;;;4.23;2.03;;;11.00;99.90;;;14.16;57.36;97026.22;5029274;28;20375;-47
2022/09/26 03:37:17;;;;;;;7.32;3.35;;;11.10;99.90;;;14.16;57.49;97027.06;5028673;28;20049;-46
2022/09/26 03:39:45;;;;;;;3.87;2.30;;;11.10;99.90;;;14.17;57.40;97023.38;5044130;28;20053;-48
2022/09/26 03:42:21;;;;;;;3.80;2.30;;;11.10;99.90;;;14.18;57.24;97022.31;5043897;28;20550;-46
2022/09/26 03:44:50;;;;;;;4.10;2.33;;;11.10;99.90;;;14.14;57.19;97015.72;5044042;28;20057;-45
2022/09/26 03:47:18;;;;;;;4.03;2.38;;;11.00;99.90;;;14.12;57.16;97014.28;5028361;28;20063;-46
2022/09/26 03:49:53;;;;;;;3.38;2.83;;;11.00;99.90;;;14.09;57.04;97003.97;5043503;28;20063;-46
2022/09/26 03:52:23;;;;;;;5.20;3.50;;;11.00;99.90;;;14.07;57.23;97014.84;5028251;28;20116;-45
2022/09/26 03:54:52;;;;;;;4.10;2.63;;;11.00;99.90;;;14.05;57.12;97008.88;5043264;28;20068;-48
2022/09/26 03:57:20;;;;;;;6.70;2.75;;;11.00;99.90;;;14.04;57.16;97004.56;5044213;28;20060;-45
2022/09/26 03:59:56;;;;;;;3.97;2.77;;;11.00;99.90;;;13.98;57.07;96998.16;5027409;28;20049;-45
2022/09/26 04:02:32;;;;;;;5.63;3.08;;;10.90;99.90;;;13.95;57.06;96998.53;5031981;28;20049;-46
2022/09/26 04:05:16;;;;;;;5.33;3.10;;;10.90;99.90;;;13.90;57.26;96989.44;5043844;28;20267;-50
2022/09/26 04:07:45;;;;;;;5.43;2.88;;;10.80;99.90;;;13.90;57.18;96981.41;5044767;28;20065;-45
2022/09/26 04:10:13;;;;;;;3.83;2.80;;;10.80;99.90;;;13.82;57.22;96974.38;5029989;28;20063;-52
2022/09/26 04:12:44;;;;;;;6.40;2.80;;;10.80;99.90;;;13.81;57.14;96975.44;5010918;28;20220;-47
2022/09/26 04:15:14;;;;;;;6.77;3.30;;;10.80;99.90;;;13.79;57.19;96969.44;5043273;28;20055;-46
2022/09/26 04:17:42;;;;;;;4.30;3.50;;;10.70;99.90;;;13.80;57.35;96960.38;5043576;28;20071;-48
2022/09/26 04:20:10;;;;;;;4.73;3.00;;;10.80;99.90;;;13.82;57.10;96962.88;5043186;28;20371;-49
2022/09/26 04:22:39;;;;;;;3.45;2.50;;;10.80;99.90;;;13.81;57.12;96959.38;5025976;28;20061;-49
2022/09/26 04:25:09;;;;;;;4.77;3.10;;;10.80;99.90;;;13.79;57.04;96956.88;5042501;28;20581;-48
2022/09/26 04:27:37;;;;;;;5.27;3.13;;;10.80;99.90;;;13.78;56.95;96957.09;5044786;28;20553;-48
2022/09/26 04:30:06;;;;;;;4.65;2.95;;;10.70;99.90;;;13.73;56.84;96954.19;5043264;28;20060;-48
2022/09/26 04:32:41;;;;;;;3.80;3.17;;;10.70;99.90;;;13.71;56.74;96949.03;5043342;28;20055;-45
2022/09/26 04:35:31;;;;;;;4.57;2.30;;;10.70;99.90;;;13.71;56.74;96949.03;5028096;28;20458;-48
2022/09/26 04:37:59;;;;;;;5.80;2.93;;;10.70;99.90;;;13.68;56.81;96948.59;5042985;28;20065;-52
2022/09/26 04:40:28;;;;;;;4.00;2.53;;;10.70;99.90;;;13.69;56.69;96953.75;5042838;28;20061;-47
2022/09/26 04:43:03;;;;;;;6.27;3.53;;;10.70;99.90;;;13.69;56.74;96947.59;5042468;28;20061;-49
2022/09/26 04:45:31;;;;;;;5.17;2.53;;;10.70;99.90;;;13.67;56.96;96945.13;5043691;28;20436;-48
2022/09/26 04:48:00;;;;;;;7.90;4.03;;;10.70;99.90;;;13.64;56.82;96940.16;5025223;28;20049;-47
2022/09/26 04:50:46;;;;;;;9.93;3.20;;;10.70;99.90;;;13.66;56.79;96942.63;5028773;28;20056;-48
2022/09/26 04:53:18;;;;;;;7.93;2.90;;;10.60;99.90;;;13.62;56.89;96936.84;5027667;28;20053;-48
2022/09/26 04:55:58;;;;;;;5.03;2.55;;;10.60;99.90;;;13.64;56.63;96934.78;5041614;28;20065;-47
2022/09/26 04:58:27;;;;;;;6.00;3.17;;;10.60;99.90;;;13.63;56.58;96935.84;5028311;28;20049;-49
2022/09/26 05:00:55;;;;;;;4.63;3.10;;;10.60;99.90;;;13.62;56.56;96936.84;5040774;28;20057;-45
2022/09/26 05:03:32;;;;;;;3.97;2.70;;;10.60;99.90;;;13.59;56.31;96931.91;5042418;28;20084;-47
2022/09/26 05:06:00;;;;;;;4.43;2.50;;;10.50;99.90;;;13.56;56.56;96929.63;5026541;28;20255;-46
2022/09/26 05:08:28;;;;;;;3.23;2.67;;;10.50;99.90;;;13.52;56.57;96926.50;5027265;28;20037;-48
2022/09/26 05:10:56;;;;;;;5.03;2.40;;;10.50;99.90;;;13.52;56.74;96923.84;5025448;28;20045;-49
2022/09/26 05:13:25;;;;;;;2.80;2.33;;;10.60;99.90;;;13.52;56.68;96921.16;5025513;28;20076;-47
2022/09/26 05:15:54;;;;;;;6.17;2.90;;;10.60;99.90;;;13.51;56.52;96922.19;5042452;28;20057;-46
2022/09/26 05:18:23;;;;;;;6.33;2.47;;;10.50;99.90;;;13.51;56.51;96924.03;5025105;28;20057;-49
2022/09/26 05:20:52;;;;;;;4.70;2.90;;;10.50;99.90;;;13.51;56.43;96919.53;5042723;28;20405;-49
2022/09/26 05:26:44;;;;;;;5.00;2.70;;;10.60;99.90;;;13.51;56.61;96913.31;5042171;28;20058;-48
2022/09/26 05:29:14;;;;;;;6.77;2.80;;;10.60;99.90;;;13.55;56.46;96917.25;5009423;28;20504;-49
2022/09/26 05:31:53;;;;;;;5.13;3.00;;;10.60;99.90;;;13.52;56.30;96910.47;5041609;28;20064;-47
2022/09/26 05:34:24;;;;;;;4.77;2.37;;;10.60;99.90;;;13.52;56.24;96906.97;5024918;28;20221;-47
2022/09/26 05:36:54;;;;;;;3.57;2.43;;;10.60;99.90;;;13.53;55.86;96912.13;5042188;28;20053;-49
2022/09/26 05:42:12;;;;;;;5.13;2.63;;;10.60;99.90;;;13.53;55.91;96905.94;5042318;28;20057;-46
2022/09/26 05:44:40;;;;;;;3.08;2.17;;;10.60;99.90;;;13.55;55.83;96912.75;5041001;28;20056;-46
2022/09/26 05:47:08;;;;;;;4.33;2.20;;;10.60;99.90;;;13.55;55.64;96903.88;5041614;28;20049;-50
2022/09/26 05:49:38;;;;;;;5.93;2.00;;;10.70;99.90;;;13.59;55.78;96902.50;5041884;28;20360;-47
2022/09/26 05:52:08;;;;;;;4.70;2.47;;;10.70;99.90;;;13.61;55.66;96904.94;5025550;28;20041;-48
2022/09/26 05:54:36;;;;;;;3.07;2.03;;;10.80;99.90;;;13.59;55.68;96897.16;5025412;28;20377;-48
2022/09/26 05:57:22;;;;;;;3.88;2.10;;;10.80;99.90;;;13.63;55.54;96901.06;5011556;28;20061;-48
2022/09/26 05:59:54;;;;;;;4.85;2.40;;;10.80;99.90;;;13.62;55.39;96899.41;5041386;28;20057;-48
2022/09/26 06:02:24;;;;;;;3.85;2.40;;;10.70;99.90;;;13.62;55.58;96899.41;5027386;28;20067;-49
2022/09/26 06:05:06;;;;;;;6.03;2.95;;;10.70;99.90;;;13.66;55.50;96900.66;5040584;28;20401;-47
2022/09/26 06:07:37;;;;;;;4.63;2.67;;;10.80;99.90;;;13.63;55.61;96906.41;5027947;28;20063;-50
2022/09/26 06:10:09;;;;;;;5.50;2.72;;;10.70;99.90;;;13.64;55.74;96900.03;5040718;28;20668;-51
2022/09/26 06:12:43;;;;;;;10.32;4.07;;;10.80;99.90;;;13.65;55.61;96899.03;5041331;28;20068;-49
2022/09/26 06:15:17;;;;;;;8.67;4.83;;;10.80;99.90;;;13.63;55.63;96903.75;5026496;28;20344;-48
2022/09/26 06:17:47;;;;;;;4.90;3.80;;;10.70;99.90;;;13.61;55.56;96900.44;5041112;28;20057;-47
2022/09/26 06:20:15;;;;;;;7.83;3.07;;;10.60;99.90;;;13.62;55.72;96910.09;5027593;28;20053;-50
2022/09/26 06:22:43;;;;;;;6.63;2.70;;;10.70;99.90;;;13.59;55.02;96907.84;5027205;28;20235;-46
2022/09/26 06:25:13;;;;;;;5.07;2.65;;;10.60;99.90;;;13.62;55.53;96906.59;5040430;28;20054;-48
2022/09/26 06:27:41;;;;;;;7.10;2.90;;;10.70;99.90;;;13.69;55.63;96902.94;5041721;28;20075;-46
2022/09/26 06:30:10;;;;;;;3.10;2.10;;;10.80;99.90;;;13.75;55.56;96896.78;5023118;28;20046;-48
2022/09/26 06:32:39;;;;;;;4.32;2.40;;;10.90;99.90;;;13.83;55.42;96901.16;5040732;28;20060;-48
2022/09/26 06:35:33;;;;;;;8.85;2.85;;;11.00;99.90;;;13.90;55.23;96893.13;5024512;28;20061;-46
2022/09/26 06:38:07;;;;;;;6.25;2.85;;;11.00;99.90;;;13.90;55.18;96903.81;5024748;28;20055;-49
2022/09/26 06:40:35;;;;;;;5.60;3.00;;;11.00;99.90;;;13.95;55.15;96894.19;5041096;28;20319;-48
2022/09/26 06:43:04;;;;;;;4.80;2.28;;;11.10;99.90;;;13.99;55.25;96895.41;5041095;28;20060;-50
2022/09/26 06:45:52;;;;;;;3.70;2.40;;;11.10;99.90;;;14.09;55.09;96887.00;5026217;28;20048;-48
2022/09/26 06:48:24;;;;;;;4.05;2.20;;;11.20;99.90;;;14.15;54.81;96888.91;5041319;28;20045;-46
2022/09/26 06:50:59;;;;;;;3.83;2.63;;;11.30;99.90;;;14.19;54.54;96892.00;5039725;28;20344;-46
2022/09/26 06:53:30;;;;;;;4.43;2.83;;;11.30;99.90;;;14.25;54.70;96893.88;5039200;28;20051;-47
2022/09/26 06:56:00;;;;;;;5.30;2.30;;;11.40;99.90;;;14.31;54.42;96886.88;5022897;28;20049;-50
2022/09/26 06:58:29;;;;;;;3.97;2.50;;;11.50;99.90;;;14.37;54.22;96886.06;5008962;28;20060;-51
2022/09/26 07:01:01;;;;;;;3.15;2.33;;;11.50;99.90;;;14.36;54.34;96887.06;5028080;28;20053;-51
2022/09/26 07:03:41;;;;;;;5.60;3.35;;;11.50;99.90;;;14.42;54.22;96885.44;5032079;28;20041;-48
2022/09/26 07:06:25;;;;;;;5.68;2.35;;;11.60;99.90;;;14.52;54.25;96881.34;5029422;28;20049;-50
2022/09/26 07:08:55;;;;;;;3.60;2.67;;;11.70;99.90;;;14.55;53.63;96874.75;5028782;28;20075;-47
2022/09/26 07:11:45;;;;;;;12.35;3.28;;;11.70;99.90;;;14.63;53.83;96868.38;5028433;28;20063;-47
2022/09/26 07:14:33;;;;;;;3.80;2.42;;;11.80;99.90;;;14.69;53.54;96863.03;5026777;28;20381;-50
2022/09/26 07:17:17;;;;;;;3.47;1.90;;;11.80;99.90;;;14.76;53.64;96866.53;5027768;28;20072;-49
2022/09/26 07:20:03;;;;;;;5.28;2.38;;;11.90;99.90;;;14.82;53.26;96870.25;5027897;28;20398;-48
2022/09/26 07:22:49;;;;;;;5.35;2.38;;;12.00;99.90;;;14.90;53.40;96869.22;5031422;28;20052;-49
2022/09/26 07:25:17;;;;;;;3.50;2.83;;;12.00;99.90;;;14.95;53.17;96867.56;5044319;28;20267;-47
2022/09/26 07:27:49;;;;;;;4.43;2.13;;;12.10;99.90;;;15.04;53.29;96862.78;5043978;28;20057;-49
2022/09/26 07:30:18;;;;;;;3.00;2.17;;;12.20;99.90;;;15.11;53.02;96862.78;5042912;28;20049;-49
2022/09/26 07:33:02;;;;;;;5.07;2.28;;;12.20;99.90;;;15.18;52.97;96855.56;5050667;28;20263;-46
2022/09/26 07:35:47;;;;;;;3.58;2.22;;;12.30;99.90;;;15.22;52.79;96859.47;5037745;28;20063;-46
2022/09/26 07:38:15;;;;;;;5.30;3.15;;;12.40;99.90;;;15.29;52.98;96860.25;5054394;28;20056;-51
2022/09/26 07:40:44;;;;;;;2.28;1.90;;;12.40;99.90;;;15.36;52.90;96854.91;5036467;28;20099;-48
2022/09/26 07:43:12;;;;;;;6.10;2.50;;;12.50;99.90;;;15.41;52.70;96851.56;5034464;28;20185;-46
2022/09/26 07:51:59;;;;;;;5.43;2.40;;;12.50;99.90;;;15.49;52.60;96854.88;5042752;28;20052;-46
2022/09/26 07:54:42;;;;;;;4.65;2.78;;;12.60;99.90;;;15.54;52.58;96859.59;5035885;28;20041;-51
2022/09/26 07:57:38;;;;;;;3.58;2.60;;;12.60;99.90;;;15.56;52.68;96857.50;5035994;28;20059;-50
2022/09/26 08:00:22;;;;;;;4.90;2.60;;;12.60;99.90;;;15.51;52.61;96849.28;5032180;28;20259;-50
2022/09/26 08:03:03;;;;;;;4.05;2.10;;;12.60;99.90;;;15.48;52.84;96852.38;5026777;28;20071;-47
2022/09/26 08:05:33;;;;;;;2.92;2.30;;;12.50;99.90;;;15.49;52.77;96848.66;5027258;28;20057;-47
2022/09/26 08:08:03;;;;;;;4.93;2.30;;;12.50;99.90;;;15.51;52.90;96858.16;5027413;28;20076;-49
2022/09/26 08:10:50;;;;;;;3.80;2.55;;;12.60;99.90;;;15.55;52.65;96848.66;5030609;28;20044;-46
2022/09/26 08:13:27;;;;;;;3.13;2.70;;;12.60;99.90;;;15.59;52.82;96843.69;5026772;28;20053;-50
2022/09/26 08:16:19;;;;;;;4.70;2.42;;;12.60;99.90;;;15.58;52.88;96839.34;5033468;28;20052;-48
2022/09/26 08:18:52;;;;;;;8.10;4.60;;;12.70;99.90;;;15.64;52.47;96840.34;5043341;28;20057;-48
2022/09/26 08:21:21;;;;;;;6.75;3.50;;;12.60;99.90;;;15.61;52.40;96835.44;5026008;28;20061;-52
2022/09/26 08:23:52;;;;;;;3.47;2.30;;;12.70;99.90;;;15.60;52.67;96836.44;5027580;28;20075;-51
2022/09/26 08:26:31;;;;;;;4.03;2.15;;;12.70;99.90;;;15.56;52.54;96833.38;5028773;28;20064;-48
2022/09/26 08:29:11;;;;;;;3.72;2.47;;;12.70;99.90;;;15.52;52.75;96832.16;5027192;28;20819;-48
2022/09/26 08:31:41;;;;;;;5.20;2.45;;;12.60;99.90;;;15.49;52.75;96821.81;5043933;28;20061;-48
2022/09/26 08:34:09;;;;;;;4.30;2.40;;;12.60;99.90;;;15.45;52.53;96821.47;5026904;28;20064;-50
2022/09/26 08:36:37;;;;;;;9.82;6.47;;;12.50;99.90;;;15.44;52.66;96819.78;5043666;28;20061;-49
2022/09/26 08:39:04;;;;;;;30.67;17.83;;;12.60;99.90;;;15.45;52.70;96826.81;5027154;28;20057;-49
2022/09/26 08:41:59;;;;;;;72.60;38.67;;;12.60;99.90;;;15.47;52.79;96823.91;5030106;28;20053;-48
2022/09/26 08:44:51;;;;;;;51.80;30.00;;;12.60;99.90;;;15.52;53.12;96818.72;5026312;28;20057;-49
2022/09/26 08:47:54;;;;;;;8.95;6.18;;;12.60;99.90;;;15.58;53.10;96814.38;5027947;28;20088;-48
2022/09/26 08:50:52;;;;;;;4.55;2.20;;;12.70;99.90;;;15.60;52.74;96809.63;5025257;28;20065;-48
2022/09/26 08:53:32;;;;;;;4.57;2.35;;;12.80;99.90;;;15.65;52.64;96815.19;5022454;28;20573;-50
2022/09/26 08:56:02;;;;;;;4.28;2.30;;;12.70;99.90;;;15.64;52.53;96808.16;4990167;28;20065;-47
2022/09/26 08:58:41;;;;;;;3.13;2.10;;;12.80;99.90;;;15.65;52.28;96807.94;5007254;28;20066;-46
2022/09/26 09:01:27;;;;;;;3.92;2.15;;;12.90;99.90;;;15.68;52.54;96804.00;5006539;28;20067;-50
2022/09/26 09:04:24;;;;;;;2.67;2.00;;;12.90;99.90;;;15.66;52.02;96795.34;5008757;28;20058;-48
2022/09/26 09:07:06;;;;;;;3.28;2.08;;;12.90;97.40;;;15.62;52.36;96797.63;5007511;28;20057;-47
2022/09/26 09:09:34;;;;;;;3.85;2.28;;;13.00;99.90;;;15.75;52.19;96789.53;5014017;28;20044;-47
2022/09/26 09:12:45;;;;;;;7.05;2.08;;;13.10;99.90;;;15.84;51.98;96791.97;5026647;28;20064;-47
2022/09/26 09:15:50;;;;;;;3.40;1.88;;;13.10;98.80;;;15.88;51.79;96791.34;5023396;28;20061;-51
2022/09/26 09:18:43;;;;;;;2.00;1.52;;;13.20;98.90;;;15.93;51.33;96796.06;5024991;28;20071;-48
2022/09/26 09:21:36;;;;;;;1.90;1.48;;;13.20;92.00;;;15.91;50.83;96793.56;5025366;28;20067;-47
2022/09/26 09:24:40;;;;;;;5.10;1.63;;;13.30;93.50;;;15.97;50.31;96789.22;5023926;28;20061;-53
2022/09/26 09:27:30;;;;;;;2.33;1.52;;;13.30;93.10;;;15.88;48.80;96785.97;5025273;28;20363;-52
2022/09/26 09:30:26;;;;;;;3.88;1.75;;;13.40;84.90;;;16.07;49.96;96786.91;5012900;28;20386;-49
2022/09/26 09:33:54;;;;;;;2.35;1.40;;;13.50;87.70;;;16.14;49.59;96776.91;5030962;28;20059;-47
2022/09/26 09:36:33;;;;;;;2.72;1.63;;;13.60;84.10;;;16.36;49.15;96783.78;5025419;28;20373;-48
2022/09/26 09:39:26;;;;;;;2.97;1.50;;;13.80;85.60;;;16.50;48.44;96779.97;5010321;28;20045;-51
2022/09/26 09:42:33;;;;;;;2.05;1.67;;;14.00;84.00;;;16.65;48.59;96771.53;5024770;28;20071;-47
2022/09/26 09:45:13;;;;;;;2.40;1.65;;;14.10;81.00;;;16.73;48.13;96776.66;5027212;28;20394;-50
2022/09/26 09:47:41;;;;;;;3.63;2.25;;;14.20;82.60;;;16.76;47.75;96770.81;5026371;28;20053;-48
2022/09/26 09:50:55;;;;;;;3.80;1.58;;;14.20;81.10;;;16.84;47.22;96773.25;5025500;28;20049;-50
2022/09/26 09:53:43;;;;;;;2.15;1.55;;;14.30;74.00;;;16.99;46.60;96778.28;5024274;28;20049;-51
2022/09/26 09:57:02;;;;;;;2.05;1.30;;;14.40;72.90;;;17.05;47.65;96755.88;5025107;28;20107;-49
2022/09/26 09:59:59;;;;;;;2.47;1.90;;;14.60;74.10;;;17.20;47.58;96760.06;5024302;28;20243;-47
2022/09/26 10:02:45;;;;;;;3.42;1.55;;;14.70;75.10;;;17.07;45.78;96755.66;5026588;28;20064;-48
2022/09/26 10:05:43;;;;;;;1.90;1.33;;;14.70;68.60;;;17.26;45.45;96749.22;5023181;28;20060;-50
2022/09/26 10:08:23;;;;;;;4.05;1.73;;;14.70;67.30;;;17.38;45.58;96735.81;5020499;28;20061;-49
2022/09/26 10:11:40;;;;;;;1.75;1.33;;;14.80;69.50;;;17.55;45.68;96737.91;5025558;28;20061;-51
2022/09/26 10:15:01;;;;;;;2.40;1.83;;;14.90;69.60;;;17.62;45.76;96723.31;5031565;28;20060;-53
2022/09/26 10:18:04;;;;;;;3.55;1.63;;;15.10;67.00;;;17.84;46.03;96729.00;5026666;28;20398;-48
2022/09/26 10:21:15;;;;;;;1.63;1.20;;;15.20;69.40;;;17.85;44.82;96719.88;5024801;28;20369;-50
2022/09/26 10:23:48;;;;;;;2.53;1.50;;;15.30;65.90;;;17.94;44.32;96712.31;5024194;28;20053;-49
2022/09/26 10:26:43;;;;;;;2.22;1.42;;;15.30;67.10;;;18.00;43.58;96718.63;5026790;28;20340;-48
2022/09/26 10:29:37;;;;;;;2.30;1.38;;;15.30;65.20;;;17.87;43.25;96715.09;5009223;28;20052;-50
2022/09/26 10:32:08;;;;;;;1.85;1.52;;;15.20;61.60;;;17.80;43.12;96727.00;5024654;28;20366;-50
2022/09/26 10:34:39;;;;;;;2.05;1.33;;;15.10;63.70;;;17.73;43.74;96720.88;5012240;28;20063;-51
2022/09/26 10:37:29;;;;;;;2.42;1.40;;;15.00;66.40;;;17.74;43.80;96717.13;5028482;28;20228;-51
2022/09/26 10:40:47;;;;;;;1.70;1.38;;;15.10;64.00;;;17.66;43.52;96710.19;5014118;28;20264;-51
2022/09/26 10:43:20;;;;;;;1.92;1.20;;;15.00;61.20;;;17.76;43.11;96712.31;5028147;28;20064;-48
2022/09/26 10:45:54;;;;;;;;;;;15.10;63.10;;;17.98;43.76;96713.47;5011927;28;20065;-49
2022/09/26 10:49:00;;;;;;;1.90;1.15;;;15.20;63.30;;;18.00;43.32;96711.38;5028652;28;19925;-53
2022/09/26 10:52:01;;;;;;;2.08;1.35;;;15.20;64.20;;;17.93;44.00;96702.56;5032725;28;20072;-48
2022/09/26 10:54:46;;;;;;;2.22;1.20;;;15.20;66.50;;;17.99;44.68;96708.91;5012565;28;20045;-51
2022/09/26 10:57:27;;;;;;;2.70;1.00;;;15.30;68.00;;;18.00;44.71;96703.28;5027982;28;20064;-51
2022/09/26 10:59:59;;;;;;;1.50;1.38;;;15.30;68.10;;;17.89;44.08;96696.84;5028734;28;20067;-49
2022/09/26 11:02:28;;;;;;;2.55;1.10;;;15.20;65.80;;;17.72;43.06;96698.53;5027480;28;20394;-48
2022/09/26 11:08:12;;;;;;;2.95;1.30;;;15.00;64.30;;;17.70;42.35;96685.28;5027292;28;20083;-49
2022/09/26 11:11:03;;;;;;;3.47;1.27;;;15.00;61.70;;;17.73;42.79;96677.81;5014508;28;20052;-50
2022/09/26 11:14:06;;;;;;;4.00;1.60;;;15.10;62.40;;;17.85;43.07;96671.41;4999798;28;20054;-48
2022/09/26 11:16:53;;;;;;;1.05;0.95;;;15.30;61.80;;;17.86;42.31;96667.69;5008721;28;20137;-49
2022/09/26 11:19:43;;;;;;;1.80;1.13;;;15.40;60.10;;;17.99;43.01;96666.66;5008736;28;20097;-49
2022/09/26 11:22:27;;;;;;;3.03;1.38;;;15.50;62.50;;;18.01;43.33;96664.56;5024316;28;20049;-48
2022/09/26 11:25:26;;;;;;;1.55;1.10;;;15.50;61.90;;;17.73;44.79;96651.72;5024209;28;20050;-51
2022/09/26 11:28:07;;;;;;;3.38;1.27;;;15.30;69.80;;;17.51;46.32;96644.16;5007454;28;20060;-46
2022/09/26 11:30:59;;;;;;;2.22;1.10;;;15.00;71.60;;;17.66;46.43;96642.91;5010793;28;20042;-49